createdAt,value
2019-01-23T00:00:59.847Z,27.30
2019-01-23T00:01:59.790Z,24.30
2019-01-23T00:02:59.754Z,26.60
2019-01-23T00:03:59.691Z,23.70
2019-01-23T00:04:59.608Z,25.70
2019-01-23T00:05:59.547Z,24.50
2019-01-23T00:06:59.490Z,25.80
2019-01-23T00:07:59.433Z,26.60
2019-01-23T00:08:59.395Z,24.60
2019-01-23T00:09:59.310Z,26.60
2019-01-23T00:10:59.250Z,25.30
2019-01-23T00:11:59.190Z,26.60
2019-01-23T00:12:59.130Z,26.40
2019-01-23T00:13:59.098Z,27.10
2019-01-23T00:14:59.009Z,26.80
2019-01-23T00:15:58.950Z,24.50
2019-01-23T00:16:58.890Z,25.20
2019-01-23T00:17:58.828Z,23.50
2019-01-23T00:18:58.796Z,26.30
2019-01-23T00:19:58.704Z,26.20
2019-01-23T00:20:58.658Z,26.50
2019-01-23T00:21:58.590Z,26.90
2019-01-23T00:22:58.540Z,25.00
2019-01-23T00:23:58.490Z,24.00
2019-01-23T00:24:58.408Z,26.40
2019-01-23T00:25:58.348Z,27.40
2019-01-23T00:26:58.288Z,25.50
2019-01-23T00:27:58.234Z,25.00
2019-01-23T00:28:58.202Z,25.80
2019-01-23T00:29:58.114Z,27.00
2019-01-23T00:30:58.051Z,26.60
2019-01-23T00:31:57.993Z,24.70
2019-01-23T00:32:57.929Z,24.60
2019-01-23T00:33:57.893Z,24.30
2019-01-23T00:34:57.812Z,26.60
2019-01-23T00:35:57.756Z,26.10
2019-01-23T00:36:57.689Z,26.50
2019-01-23T00:37:57.632Z,27.00
2019-01-23T00:38:57.617Z,26.20
2019-01-23T00:39:57.509Z,25.30
2019-01-23T00:40:57.445Z,28.10
2019-01-23T00:41:57.395Z,26.40
2019-01-23T00:42:57.333Z,25.90
2019-01-23T00:43:57.274Z,28.80
2019-01-23T00:44:57.243Z,27.30
2019-01-23T00:45:57.153Z,27.40
2019-01-23T00:46:57.091Z,27.40
2019-01-23T00:47:57.027Z,28.80
2019-01-23T00:48:56.974Z,26.50
2019-01-23T00:49:56.939Z,26.20
2019-01-23T00:50:56.846Z,26.50
2019-01-23T00:51:56.800Z,27.30
2019-01-23T00:52:56.733Z,26.90
2019-01-23T00:53:56.676Z,25.60
2019-01-23T00:54:56.644Z,27.30
2019-01-23T00:55:56.555Z,27.80
2019-01-23T00:56:56.496Z,27.00
2019-01-23T00:57:56.431Z,27.80
2019-01-23T00:58:56.371Z,26.50
2019-01-23T00:59:56.338Z,27.60
2019-01-23T01:00:56.257Z,27.00
2019-01-23T01:01:56.197Z,27.60
2019-01-23T01:02:56.135Z,25.50
2019-01-23T01:03:56.073Z,26.10
2019-01-23T01:04:56.039Z,26.20
2019-01-23T01:05:55.958Z,27.70
2019-01-23T01:06:55.896Z,26.50
2019-01-23T01:07:55.832Z,25.40
2019-01-23T01:08:55.777Z,26.90
2019-01-23T01:09:55.738Z,27.10
2019-01-23T01:10:55.651Z,26.60
2019-01-23T01:11:55.593Z,27.00
2019-01-23T01:12:55.528Z,27.60
2019-01-23T01:13:55.473Z,25.30
2019-01-23T01:14:55.439Z,26.90
2019-01-23T01:15:55.355Z,28.00
2019-01-23T01:16:55.294Z,26.10
2019-01-23T01:17:55.236Z,24.90
2019-01-23T01:18:55.171Z,27.80
2019-01-23T01:19:55.137Z,27.50
2019-01-23T01:20:55.056Z,27.50
2019-01-23T01:21:54.997Z,25.90
2019-01-23T01:22:54.934Z,26.40
2019-01-23T01:23:54.871Z,26.90
2019-01-23T01:24:54.838Z,25.00
2019-01-23T01:25:54.756Z,25.40
2019-01-23T01:26:54.693Z,25.70
2019-01-23T01:27:54.633Z,26.90
2019-01-23T01:28:56.051Z,27.60
2019-01-23T01:29:54.543Z,25.70
2019-01-23T01:30:54.455Z,28.20
2019-01-23T01:31:54.396Z,25.90
2019-01-23T01:32:54.336Z,27.80
2019-01-23T01:33:54.280Z,26.70
2019-01-23T01:34:54.243Z,26.60
2019-01-23T01:35:54.149Z,26.80
2019-01-23T01:36:54.097Z,28.20
2019-01-23T01:37:54.036Z,26.70
2019-01-23T01:38:53.981Z,26.30
2019-01-23T01:39:53.944Z,28.30
2019-01-23T01:40:53.856Z,27.20
2019-01-23T01:41:53.798Z,28.40
2019-01-23T01:42:53.737Z,26.90
2019-01-23T01:43:53.683Z,27.30
2019-01-23T01:44:53.642Z,26.00
2019-01-23T01:45:53.556Z,27.10
2019-01-23T01:46:53.505Z,28.10
2019-01-23T01:47:53.441Z,27.10
2019-01-23T01:48:53.378Z,25.60
2019-01-23T01:49:53.342Z,26.70
2019-01-23T01:50:53.258Z,28.00
2019-01-23T01:51:53.198Z,29.40
2019-01-23T01:52:53.136Z,28.00
2019-01-23T01:53:53.085Z,26.40
2019-01-23T01:54:53.040Z,26.90
2019-01-23T01:55:52.959Z,27.30
2019-01-23T01:56:52.907Z,25.00
2019-01-23T01:57:52.845Z,28.70
2019-01-23T01:58:52.781Z,26.20
2019-01-23T01:59:52.748Z,28.40
2019-01-23T02:00:52.662Z,28.90
2019-01-23T02:01:52.603Z,27.10
2019-01-23T02:02:52.541Z,25.90
2019-01-23T02:03:52.483Z,27.30
2019-01-23T02:04:52.451Z,28.60
2019-01-23T02:05:52.363Z,28.50
2019-01-23T02:06:52.305Z,27.40
2019-01-23T02:07:52.245Z,27.70
2019-01-23T02:08:52.184Z,28.90
2019-01-23T02:09:52.125Z,26.30
2019-01-23T02:10:52.090Z,27.60
2019-01-23T02:11:52.007Z,26.90
2019-01-23T02:12:51.948Z,29.50
2019-01-23T02:13:51.891Z,26.50
2019-01-23T02:14:51.826Z,28.40
2019-01-23T02:15:51.790Z,29.00
2019-01-23T02:16:51.709Z,28.90
2019-01-23T02:17:51.652Z,27.30
2019-01-23T02:18:51.594Z,27.00
2019-01-23T02:19:51.526Z,27.00
2019-01-23T02:20:51.497Z,27.20
2019-01-23T02:21:51.411Z,28.10
2019-01-23T02:22:51.349Z,28.40
2019-01-23T02:23:51.294Z,27.20
2019-01-23T02:24:51.228Z,29.30
2019-01-23T02:25:51.202Z,25.80
2019-01-23T02:26:51.110Z,25.90
2019-01-23T02:27:51.048Z,27.60
2019-01-23T02:28:50.989Z,30.20
2019-01-23T02:29:50.935Z,25.70
2019-01-23T02:30:50.901Z,28.10
2019-01-23T02:31:50.815Z,28.90
2019-01-23T02:32:50.751Z,29.60
2019-01-23T02:33:50.698Z,29.00
2019-01-23T02:34:50.638Z,27.30
2019-01-23T02:35:50.601Z,28.50
2019-01-23T02:36:50.526Z,29.00
2019-01-23T02:37:50.460Z,28.00
2019-01-23T02:38:50.399Z,29.30
2019-01-23T02:39:50.358Z,27.10
2019-01-23T02:40:50.308Z,31.30
2019-01-23T02:41:51.007Z,27.70
2019-01-23T02:42:50.158Z,29.00
2019-01-23T02:43:50.109Z,29.40
2019-01-23T02:44:50.039Z,27.80
2019-01-23T02:45:50.009Z,28.60
2019-01-23T02:46:49.935Z,30.50
2019-01-23T02:47:49.859Z,26.50
2019-01-23T02:48:49.804Z,28.90
2019-01-23T02:49:49.758Z,28.40
2019-01-23T02:50:49.711Z,31.80
2019-01-23T02:51:49.629Z,27.60
2019-01-23T02:52:49.563Z,32.10
2019-01-23T02:53:49.511Z,28.70
2019-01-23T02:54:49.443Z,27.70
2019-01-23T02:55:49.412Z,29.80
2019-01-23T02:56:49.328Z,29.80
2019-01-23T02:57:49.274Z,27.20
2019-01-23T02:58:49.207Z,29.50
2019-01-23T02:59:49.150Z,28.10
2019-01-23T03:00:49.117Z,29.10
2019-01-23T03:01:49.031Z,27.50
2019-01-23T03:02:48.970Z,28.60
2019-01-23T03:03:48.913Z,29.50
2019-01-23T03:04:48.857Z,31.70
2019-01-23T03:05:48.829Z,28.00
2019-01-23T03:06:48.728Z,30.90
2019-01-23T03:07:48.672Z,27.80
2019-01-23T03:08:48.613Z,28.30
2019-01-23T03:09:48.553Z,29.20
2019-01-23T03:10:48.515Z,28.10
2019-01-23T03:11:48.441Z,28.10
2019-01-23T03:12:48.375Z,29.60
2019-01-23T03:13:48.320Z,29.50
2019-01-23T03:14:48.251Z,29.00
2019-01-23T03:15:48.226Z,29.00
2019-01-23T03:16:48.141Z,30.30
2019-01-23T03:17:48.078Z,29.70
2019-01-23T03:18:48.021Z,29.50
2019-01-23T03:19:47.959Z,28.50
2019-01-23T03:20:47.919Z,30.90
2019-01-23T03:21:47.842Z,28.80
2019-01-23T03:22:47.780Z,28.90
2019-01-23T03:23:47.726Z,30.80
2019-01-23T03:24:47.662Z,27.80
2019-01-23T03:25:47.627Z,31.40
2019-01-23T03:26:47.543Z,29.30
2019-01-23T03:27:47.479Z,27.60
2019-01-23T03:28:47.421Z,30.60
2019-01-23T03:29:47.366Z,31.40
2019-01-23T03:30:47.352Z,31.30
2019-01-23T03:31:47.253Z,27.90
2019-01-23T03:32:47.188Z,28.70
2019-01-23T03:33:47.134Z,29.20
2019-01-23T03:34:47.076Z,30.10
2019-01-23T03:35:47.048Z,30.70
2019-01-23T03:36:46.951Z,29.90
2019-01-23T03:37:46.893Z,31.70
2019-01-23T03:38:46.828Z,30.30
2019-01-23T03:39:46.767Z,30.80
2019-01-23T03:40:46.744Z,31.00
2019-01-23T03:41:46.648Z,29.00
2019-01-23T03:42:46.589Z,29.40
2019-01-23T03:43:46.528Z,31.50
2019-01-23T03:44:46.468Z,30.80
2019-01-23T03:45:46.413Z,28.40
2019-01-23T03:46:46.375Z,30.70
2019-01-23T03:47:46.299Z,29.00
2019-01-23T03:48:46.232Z,32.80
2019-01-23T03:49:46.173Z,30.90
2019-01-23T03:50:46.111Z,31.00
2019-01-23T03:51:46.077Z,31.80
2019-01-23T03:52:46.010Z,30.30
2019-01-23T03:53:45.935Z,30.90
2019-01-23T03:54:45.878Z,29.20
2019-01-23T03:55:45.825Z,30.70
2019-01-23T03:56:45.781Z,31.20
2019-01-23T03:57:45.705Z,30.60
2019-01-23T03:58:45.638Z,32.50
2019-01-23T03:59:45.580Z,29.90
2019-01-23T04:00:45.521Z,29.40
2019-01-23T04:01:45.484Z,30.60
2019-01-23T04:02:45.400Z,30.90
2019-01-23T04:03:45.347Z,27.00
2019-01-23T04:04:45.282Z,31.30
2019-01-23T04:05:45.223Z,31.40
2019-01-23T04:06:45.190Z,28.40
2019-01-23T04:07:45.098Z,29.60
2019-01-23T04:08:45.050Z,32.10
2019-01-23T04:09:44.988Z,28.10
2019-01-23T04:10:44.925Z,31.30
2019-01-23T04:11:44.898Z,30.60
2019-01-23T04:12:44.810Z,30.00
2019-01-23T04:13:44.775Z,29.20
2019-01-23T04:14:44.689Z,29.80
2019-01-23T04:15:44.633Z,30.10
2019-01-23T04:16:44.570Z,29.80
2019-01-23T04:17:44.538Z,30.20
2019-01-23T04:18:44.453Z,28.80
2019-01-23T04:19:44.386Z,29.40
2019-01-23T04:20:44.330Z,29.60
2019-01-23T04:21:44.272Z,28.60
2019-01-23T04:22:44.232Z,31.40
2019-01-23T04:23:44.148Z,29.50
2019-01-23T04:24:44.094Z,28.80
2019-01-23T04:25:44.039Z,28.80
2019-01-23T04:26:43.979Z,30.70
2019-01-23T04:27:43.935Z,29.20
2019-01-23T04:28:43.855Z,29.80
2019-01-23T04:29:43.797Z,29.30
2019-01-23T04:30:43.736Z,30.70
2019-01-23T04:31:43.677Z,29.20
2019-01-23T04:32:43.638Z,26.30
2019-01-23T04:33:43.562Z,28.90
2019-01-23T04:34:43.501Z,29.30
2019-01-23T04:35:43.439Z,32.00
2019-01-23T04:36:43.380Z,28.00
2019-01-23T04:37:43.343Z,28.50
2019-01-23T04:38:43.253Z,30.30
2019-01-23T04:39:43.207Z,30.90
2019-01-23T04:40:43.156Z,28.10
2019-01-23T04:41:43.087Z,27.00
2019-01-23T04:42:43.054Z,29.00
2019-01-23T04:43:42.961Z,29.20
2019-01-23T04:44:42.905Z,30.70
2019-01-23T04:45:42.851Z,28.10
2019-01-23T04:46:42.790Z,31.00
2019-01-23T04:47:42.748Z,27.80
2019-01-23T04:48:42.667Z,29.10
2019-01-23T04:49:42.605Z,27.70
2019-01-23T04:50:42.553Z,27.10
2019-01-23T04:51:42.491Z,27.40
2019-01-23T04:52:42.475Z,28.90
2019-01-23T04:53:42.375Z,30.30
2019-01-23T04:54:42.313Z,32.20
2019-01-23T04:55:42.248Z,27.70
2019-01-23T04:56:42.190Z,31.50
2019-01-23T04:57:42.134Z,29.40
2019-01-23T04:58:42.096Z,27.60
2019-01-23T04:59:46.774Z,30.40
2019-01-23T05:00:41.955Z,30.70
2019-01-23T05:01:41.896Z,29.10
2019-01-23T05:02:41.838Z,30.30
2019-01-23T05:03:41.802Z,30.20
2019-01-23T05:04:41.721Z,30.40
2019-01-23T05:05:41.667Z,30.90
2019-01-23T05:06:41.618Z,29.90
2019-01-23T05:07:41.538Z,30.60
2019-01-23T05:08:41.504Z,30.70
2019-01-23T05:09:41.426Z,29.10
2019-01-23T05:10:41.360Z,30.00
2019-01-23T05:11:41.298Z,29.10
2019-01-23T05:12:41.251Z,30.00
2019-01-23T05:13:41.210Z,31.00
2019-01-23T05:14:41.133Z,30.60
2019-01-23T05:15:41.079Z,30.20
2019-01-23T05:16:41.009Z,28.90
2019-01-23T05:17:40.949Z,29.10
2019-01-23T05:18:40.915Z,31.50
2019-01-23T05:19:40.834Z,29.70
2019-01-23T05:20:40.778Z,28.70
2019-01-23T05:21:40.711Z,28.20
2019-01-23T05:22:40.660Z,29.30
2019-01-23T05:23:40.623Z,28.00
2019-01-23T05:24:40.534Z,28.80
2019-01-23T05:25:40.479Z,30.20
2019-01-23T05:26:40.414Z,28.30
2019-01-23T05:27:40.357Z,28.70
2019-01-23T05:28:40.320Z,28.00
2019-01-23T05:29:40.242Z,29.40
2019-01-23T05:30:40.179Z,30.20
2019-01-23T05:31:40.118Z,31.30
2019-01-23T05:32:40.058Z,31.60
2019-01-23T05:33:40.034Z,30.60
2019-01-23T05:34:39.936Z,29.70
2019-01-23T05:35:39.880Z,32.30
2019-01-23T05:36:39.828Z,30.50
2019-01-23T05:37:39.765Z,30.10
2019-01-23T05:38:39.705Z,30.50
2019-01-23T05:39:39.677Z,29.90
2019-01-23T05:40:39.592Z,31.10
2019-01-23T05:41:39.527Z,27.80
2019-01-23T05:42:39.469Z,30.90
2019-01-23T05:43:39.410Z,31.90
2019-01-23T05:44:39.377Z,30.50
2019-01-23T05:45:39.293Z,27.20
2019-01-23T05:46:39.241Z,29.10
2019-01-23T05:47:39.171Z,29.80
2019-01-23T05:48:39.112Z,29.40
2019-01-23T05:49:39.076Z,29.80
2019-01-23T05:50:38.996Z,30.30
2019-01-23T05:51:38.934Z,28.00
2019-01-23T05:52:38.878Z,31.00
2019-01-23T05:53:38.818Z,28.40
2019-01-23T05:54:38.780Z,30.50
2019-01-23T05:55:38.699Z,31.10
2019-01-23T05:56:38.635Z,31.10
2019-01-23T05:57:38.575Z,29.60
2019-01-23T05:58:38.518Z,29.60
2019-01-23T05:59:38.487Z,30.30
2019-01-23T06:00:38.417Z,27.40
2019-01-23T06:01:38.342Z,30.50
2019-01-23T06:02:38.276Z,29.70
2019-01-23T06:03:38.220Z,29.90
2019-01-23T06:04:38.188Z,31.00
2019-01-23T06:05:38.106Z,29.70
2019-01-23T06:06:38.051Z,30.50
2019-01-23T06:07:37.987Z,30.90
2019-01-23T06:08:37.923Z,31.30
2019-01-23T06:09:37.892Z,31.40
2019-01-23T06:10:37.801Z,28.90
2019-01-23T06:11:37.751Z,31.60
2019-01-23T06:12:37.694Z,30.80
2019-01-23T06:13:37.632Z,30.70
2019-01-23T06:14:37.590Z,27.80
2019-01-23T06:15:37.512Z,30.60
2019-01-23T06:16:37.449Z,29.90
2019-01-23T06:17:37.390Z,28.70
2019-01-23T06:18:37.334Z,29.10
2019-01-23T06:19:37.298Z,29.80
2019-01-23T06:20:37.215Z,30.20
2019-01-23T06:21:37.154Z,29.40
2019-01-23T06:22:37.095Z,29.30
2019-01-23T06:23:37.035Z,29.20
2019-01-23T06:24:37.000Z,28.60
2019-01-23T06:25:36.924Z,30.40
2019-01-23T06:26:36.858Z,31.90
2019-01-23T06:27:36.798Z,28.60
2019-01-23T06:28:36.739Z,27.70
2019-01-23T06:29:36.704Z,29.20
2019-01-23T06:30:36.623Z,31.60
2019-01-23T06:31:37.381Z,29.70
2019-01-23T06:32:36.504Z,30.20
2019-01-23T06:33:36.446Z,29.50
2019-01-23T06:34:36.415Z,30.80
2019-01-23T06:35:36.322Z,29.10
2019-01-23T06:36:36.268Z,29.50
2019-01-23T06:37:36.207Z,29.50
2019-01-23T06:38:36.149Z,30.50
2019-01-23T06:39:36.119Z,28.40
2019-01-23T06:40:36.034Z,28.60
2019-01-23T06:41:35.969Z,30.50
2019-01-23T06:42:35.911Z,30.80
2019-01-23T06:43:35.852Z,31.20
2019-01-23T06:44:35.814Z,32.10
2019-01-23T06:45:35.735Z,30.30
2019-01-23T06:46:35.674Z,29.60
2019-01-23T06:47:35.614Z,30.50
2019-01-23T06:48:35.557Z,29.70
2019-01-23T06:49:35.536Z,30.40
2019-01-23T06:50:35.448Z,30.70
2019-01-23T06:51:35.377Z,28.60
2019-01-23T06:52:35.321Z,32.30
2019-01-23T06:53:35.260Z,29.70
2019-01-23T06:54:35.204Z,29.20
2019-01-23T06:55:35.163Z,30.00
2019-01-23T06:56:35.079Z,27.90
2019-01-23T06:57:35.020Z,28.70
2019-01-23T06:58:34.962Z,29.10
2019-01-23T06:59:34.898Z,31.00
2019-01-23T07:00:34.866Z,27.00
2019-01-23T07:01:34.783Z,31.20
2019-01-23T07:02:34.729Z,28.60
2019-01-23T07:03:34.694Z,31.90
2019-01-23T07:04:34.614Z,29.90
2019-01-23T07:05:34.572Z,29.00
2019-01-23T07:06:34.485Z,30.20
2019-01-23T07:07:34.427Z,27.70
2019-01-23T07:08:34.371Z,31.10
2019-01-23T07:09:34.315Z,29.60
2019-01-23T07:10:34.277Z,30.60
2019-01-23T07:11:34.196Z,30.10
2019-01-23T07:12:34.134Z,28.40
2019-01-23T07:13:34.076Z,30.90
2019-01-23T07:14:34.014Z,28.00
2019-01-23T07:15:33.985Z,30.80
2019-01-23T07:16:33.896Z,27.90
2019-01-23T07:17:33.836Z,29.20
2019-01-23T07:18:33.776Z,29.20
2019-01-23T07:19:33.760Z,30.40
2019-01-23T07:20:33.682Z,30.20
2019-01-23T07:21:33.605Z,29.50
2019-01-23T07:22:33.540Z,29.10
2019-01-23T07:23:33.478Z,27.50
2019-01-23T07:24:33.421Z,28.60
2019-01-23T07:25:33.389Z,27.90
2019-01-23T07:26:33.305Z,30.70
2019-01-23T07:27:33.239Z,29.60
2019-01-23T07:28:33.183Z,30.40
2019-01-23T07:29:33.119Z,30.00
2019-01-23T07:30:33.093Z,32.80
2019-01-23T07:31:33.006Z,30.10
2019-01-23T07:32:32.946Z,28.70
2019-01-23T07:33:32.886Z,32.50
2019-01-23T07:34:32.830Z,29.30
2019-01-23T07:35:32.814Z,34.40
2019-01-23T07:36:32.717Z,29.60
2019-01-23T07:37:32.652Z,29.60
2019-01-23T07:38:32.595Z,31.50
2019-01-23T07:39:32.533Z,33.10
2019-01-23T07:40:32.468Z,30.80
2019-01-23T07:41:32.434Z,33.60
2019-01-23T07:42:32.355Z,32.40
2019-01-23T07:43:32.291Z,33.20
2019-01-23T07:44:32.235Z,30.50
2019-01-23T07:45:32.177Z,31.30
2019-01-23T07:46:32.142Z,32.00
2019-01-23T07:47:32.059Z,30.70
2019-01-23T07:48:31.998Z,35.20
2019-01-23T07:49:31.937Z,32.00
2019-01-23T07:50:31.882Z,31.60
2019-01-23T07:51:31.842Z,31.60
2019-01-23T07:52:31.765Z,32.40
2019-01-23T07:53:31.713Z,34.60
2019-01-23T07:54:31.642Z,31.50
2019-01-23T07:55:31.583Z,31.00
2019-01-23T07:56:31.555Z,30.60
2019-01-23T07:57:31.468Z,29.50
2019-01-23T07:58:31.404Z,32.90
2019-01-23T07:59:31.349Z,33.20
2019-01-23T08:00:31.786Z,31.70
2019-01-23T08:01:31.255Z,29.30
2019-01-23T08:02:31.164Z,30.80
2019-01-23T08:03:31.111Z,30.70
2019-01-23T08:04:31.044Z,32.90
2019-01-23T08:05:30.992Z,33.70
2019-01-23T08:06:30.954Z,30.50
2019-01-23T08:07:30.873Z,31.40
2019-01-23T08:08:30.814Z,30.60
2019-01-23T08:09:30.757Z,31.40
2019-01-23T08:10:30.702Z,30.10
2019-01-23T08:11:30.660Z,31.80
2019-01-23T08:12:30.578Z,30.60
2019-01-23T08:13:30.522Z,28.70
2019-01-23T08:14:30.463Z,28.70
2019-01-23T08:15:30.399Z,33.50
2019-01-23T08:16:30.371Z,32.80
2019-01-23T08:17:32.862Z,28.40
2019-01-23T08:18:30.222Z,31.60
2019-01-23T08:19:30.161Z,33.70
2019-01-23T08:20:30.101Z,32.80
2019-01-23T08:21:30.095Z,32.90
2019-01-23T08:22:29.983Z,33.40
2019-01-23T08:23:29.925Z,30.20
2019-01-23T08:24:29.865Z,30.50
2019-01-23T08:25:29.810Z,30.00
2019-01-23T08:26:29.747Z,29.30
2019-01-23T08:27:29.718Z,28.90
2019-01-23T08:28:29.635Z,30.30
2019-01-23T08:29:29.575Z,32.00
2019-01-23T08:30:29.512Z,31.50
2019-01-23T08:31:29.456Z,31.10
2019-01-23T08:32:29.419Z,30.70
2019-01-23T08:33:29.339Z,28.30
2019-01-23T08:34:29.274Z,30.20
2019-01-23T08:35:29.214Z,30.10
2019-01-23T08:36:29.159Z,33.60
2019-01-23T08:37:29.135Z,31.70
2019-01-23T08:38:29.043Z,34.30
2019-01-23T08:39:28.976Z,31.40
2019-01-23T08:40:28.918Z,33.00
2019-01-23T08:41:28.857Z,32.50
2019-01-23T08:42:28.826Z,33.20
2019-01-23T08:43:28.739Z,32.10
2019-01-23T08:44:28.680Z,31.40
2019-01-23T08:45:28.624Z,30.90
2019-01-23T08:46:28.562Z,30.50
2019-01-23T08:47:28.525Z,33.70
2019-01-23T08:48:28.438Z,30.00
2019-01-23T08:49:28.392Z,35.40
2019-01-23T08:50:28.324Z,33.00
2019-01-23T08:51:28.263Z,32.00
2019-01-23T08:52:28.236Z,34.90
2019-01-23T08:53:28.145Z,33.40
2019-01-23T08:54:28.120Z,32.40
2019-01-23T08:55:28.028Z,31.40
2019-01-23T08:56:27.967Z,34.00
2019-01-23T08:57:27.930Z,33.20
2019-01-23T08:58:27.854Z,33.70
2019-01-23T08:59:27.788Z,32.00
2019-01-23T09:00:27.731Z,34.80
2019-01-23T09:01:27.675Z,33.20
2019-01-23T09:02:27.637Z,32.90
2019-01-23T09:03:27.550Z,31.30
2019-01-23T09:04:27.491Z,30.10
2019-01-23T09:05:27.433Z,31.40
2019-01-23T09:06:27.371Z,32.50
2019-01-23T09:07:27.337Z,31.10
2019-01-23T09:08:27.253Z,32.20
2019-01-23T09:09:27.197Z,33.00
2019-01-23T09:10:27.134Z,34.30
2019-01-23T09:11:27.075Z,30.90
2019-01-23T09:12:27.041Z,34.10
2019-01-23T09:13:26.962Z,31.30
2019-01-23T09:14:26.897Z,31.70
2019-01-23T09:15:26.844Z,33.10
2019-01-23T09:16:26.782Z,31.80
2019-01-23T09:17:26.766Z,31.10
2019-01-23T09:18:26.666Z,32.30
2019-01-23T09:19:26.606Z,30.40
2019-01-23T09:20:26.544Z,31.60
2019-01-23T09:21:26.485Z,32.60
2019-01-23T09:22:26.450Z,31.80
2019-01-23T09:23:26.363Z,32.00
2019-01-23T09:24:26.307Z,31.10
2019-01-23T09:25:26.250Z,33.50
2019-01-23T09:26:26.184Z,31.50
2019-01-23T09:27:26.152Z,30.40
2019-01-23T09:28:26.068Z,33.70
2019-01-23T09:29:26.009Z,33.60
2019-01-23T09:30:25.952Z,31.60
2019-01-23T09:31:25.891Z,30.90
2019-01-23T09:32:25.866Z,32.80
2019-01-23T09:33:25.801Z,30.20
2019-01-23T09:34:25.718Z,34.70
2019-01-23T09:35:25.658Z,31.90
2019-01-23T09:36:25.591Z,33.50
2019-01-23T09:37:25.541Z,29.70
2019-01-23T09:38:25.496Z,31.00
2019-01-23T09:39:25.420Z,30.70
2019-01-23T09:40:25.357Z,28.30
2019-01-23T09:41:25.301Z,28.30
2019-01-23T09:42:25.246Z,30.00
2019-01-23T09:43:25.209Z,34.40
2019-01-23T09:44:25.127Z,31.10
2019-01-23T09:45:25.063Z,29.80
2019-01-23T09:46:25.003Z,30.60
2019-01-23T09:47:24.946Z,32.10
2019-01-23T09:48:24.906Z,29.70
2019-01-23T09:49:24.830Z,29.60
2019-01-23T09:50:24.769Z,29.70
2019-01-23T09:51:24.711Z,28.80
2019-01-23T09:52:24.650Z,30.00
2019-01-23T09:53:24.617Z,32.20
2019-01-23T09:54:24.530Z,28.90
2019-01-23T09:55:24.474Z,31.50
2019-01-23T09:56:24.420Z,31.20
2019-01-23T09:57:24.355Z,28.00
2019-01-23T09:58:24.318Z,29.80
2019-01-23T09:59:24.241Z,32.00
2019-01-23T10:00:24.181Z,29.90
2019-01-23T10:01:24.120Z,33.10
2019-01-23T10:02:24.062Z,29.50
2019-01-23T10:03:24.025Z,31.40
2019-01-23T10:04:23.942Z,30.30
2019-01-23T10:05:23.882Z,31.30
2019-01-23T10:06:23.827Z,30.90
2019-01-23T10:07:23.768Z,29.70
2019-01-23T10:08:23.728Z,30.70
2019-01-23T10:09:23.651Z,32.60
2019-01-23T10:10:23.589Z,29.50
2019-01-23T10:11:23.534Z,30.40
2019-01-23T10:12:23.475Z,31.60
2019-01-23T10:13:23.437Z,32.30
2019-01-23T10:14:23.348Z,32.80
2019-01-23T10:15:23.292Z,32.00
2019-01-23T10:16:23.249Z,31.50
2019-01-23T10:17:23.179Z,33.70
2019-01-23T10:18:23.144Z,28.80
2019-01-23T10:19:23.062Z,33.00
2019-01-23T10:20:23.001Z,32.90
2019-01-23T10:21:22.943Z,31.80
2019-01-23T10:22:22.882Z,33.20
2019-01-23T10:23:22.872Z,33.40
2019-01-23T10:24:22.764Z,32.00
2019-01-23T10:25:22.707Z,30.00
2019-01-23T10:26:22.653Z,32.50
2019-01-23T10:27:22.593Z,33.90
2019-01-23T10:28:22.527Z,32.60
2019-01-23T10:29:22.495Z,34.40
2019-01-23T10:30:22.417Z,35.00
2019-01-23T10:31:22.353Z,36.00
2019-01-23T10:32:22.290Z,36.70
2019-01-23T10:33:22.242Z,34.70
2019-01-23T10:34:22.196Z,35.00
2019-01-23T10:35:22.117Z,33.00
2019-01-23T10:36:22.061Z,35.40
2019-01-23T10:37:21.997Z,33.60
2019-01-23T10:38:29.461Z,33.20
2019-01-23T10:39:21.874Z,34.30
2019-01-23T10:40:21.792Z,34.10
2019-01-23T10:41:21.733Z,34.20
2019-01-23T10:42:21.671Z,36.10
2019-01-23T10:43:21.614Z,33.20
2019-01-23T10:44:21.579Z,32.80
2019-01-23T10:45:21.496Z,32.70
2019-01-23T10:46:21.437Z,30.60
2019-01-23T10:47:21.376Z,32.30
2019-01-23T10:48:21.321Z,33.20
2019-01-23T10:49:21.280Z,35.10
2019-01-23T10:50:21.198Z,34.40
2019-01-23T10:51:21.142Z,35.00
2019-01-23T10:52:21.081Z,34.70
2019-01-23T10:53:21.024Z,38.10
2019-01-23T10:54:20.988Z,31.30
2019-01-23T10:55:20.906Z,34.00
2019-01-23T10:56:20.846Z,35.00
2019-01-23T10:57:20.792Z,34.10
2019-01-23T10:58:20.726Z,34.20
2019-01-23T10:59:20.694Z,35.30
2019-01-23T11:00:20.610Z,34.30
2019-01-23T11:01:20.554Z,32.90
2019-01-23T11:02:20.495Z,32.50
2019-01-23T11:03:20.437Z,29.80
2019-01-23T11:04:20.401Z,34.80
2019-01-23T11:05:20.318Z,34.90
2019-01-23T11:06:20.260Z,32.30
2019-01-23T11:07:20.203Z,32.90
2019-01-23T11:08:20.141Z,34.80
2019-01-23T11:09:20.124Z,36.10
2019-01-23T11:10:20.024Z,35.30
2019-01-23T11:11:19.965Z,31.80
2019-01-23T11:12:19.906Z,33.20
2019-01-23T11:13:19.849Z,34.40
2019-01-23T11:14:19.821Z,34.60
2019-01-23T11:15:19.734Z,38.40
2019-01-23T11:16:19.674Z,35.10
2019-01-23T11:17:19.617Z,31.60
2019-01-23T11:18:19.556Z,32.80
2019-01-23T11:19:19.525Z,35.90
2019-01-23T11:20:19.442Z,33.10
2019-01-23T11:21:19.385Z,34.10
2019-01-23T11:22:19.323Z,31.60
2019-01-23T11:23:19.263Z,34.20
2019-01-23T11:24:19.230Z,35.00
2019-01-23T11:25:19.262Z,33.30
2019-01-23T11:26:19.270Z,34.40
2019-01-23T11:27:19.031Z,32.30
2019-01-23T11:28:18.974Z,32.50
2019-01-23T11:29:18.937Z,31.90
2019-01-23T11:30:18.856Z,32.90
2019-01-23T11:31:20.432Z,35.60
2019-01-23T11:32:18.741Z,34.40
2019-01-23T11:33:18.681Z,32.70
2019-01-23T11:34:18.646Z,30.70
2019-01-23T11:35:18.566Z,31.20
2019-01-23T11:36:18.521Z,33.20
2019-01-23T11:37:18.450Z,33.50
2019-01-23T11:38:18.388Z,34.70
2019-01-23T11:39:18.358Z,30.30
2019-01-23T11:40:18.270Z,36.10
2019-01-23T11:41:18.217Z,31.10
2019-01-23T11:42:18.159Z,32.90
2019-01-23T11:43:18.099Z,30.90
2019-01-23T11:44:18.063Z,29.90
2019-01-23T11:45:18.039Z,31.30
2019-01-23T11:46:17.924Z,32.60
2019-01-23T11:47:17.866Z,34.70
2019-01-23T11:48:17.810Z,32.60
2019-01-23T11:49:17.801Z,32.60
2019-01-23T11:50:22.882Z,34.70
2019-01-23T11:51:17.631Z,37.00
2019-01-23T11:52:17.574Z,31.40
2019-01-23T11:53:17.519Z,33.30
2019-01-23T11:54:17.459Z,31.40
2019-01-23T11:55:17.421Z,32.20
2019-01-23T11:56:17.342Z,32.00
2019-01-23T11:57:17.282Z,30.00
2019-01-23T11:58:17.223Z,32.20
2019-01-23T11:59:17.167Z,30.10
2019-01-23T12:00:17.133Z,32.80
2019-01-23T12:01:17.052Z,32.10
2019-01-23T12:02:16.991Z,30.50
2019-01-23T12:03:20.891Z,30.50
2019-01-23T12:04:16.874Z,27.60
2019-01-23T12:05:16.840Z,30.20
2019-01-23T12:06:16.759Z,32.70
2019-01-23T12:07:16.701Z,32.20
2019-01-23T12:08:16.645Z,31.60
2019-01-23T12:09:16.588Z,30.00
2019-01-23T12:10:16.545Z,27.80
2019-01-23T12:11:16.464Z,30.30
2019-01-23T12:12:16.409Z,30.50
2019-01-23T12:13:16.350Z,29.80
2019-01-23T12:14:16.291Z,31.50
2019-01-23T12:15:16.255Z,31.50
2019-01-23T12:16:16.175Z,30.20
2019-01-23T12:17:16.118Z,29.90
2019-01-23T12:18:16.059Z,30.30
2019-01-23T12:19:16.005Z,30.50
2019-01-23T12:20:15.967Z,30.90
2019-01-23T12:21:15.885Z,31.30
2019-01-23T12:22:15.827Z,29.90
2019-01-23T12:23:15.768Z,30.50
2019-01-23T12:24:15.713Z,31.90
2019-01-23T12:25:15.656Z,31.50
2019-01-23T12:26:15.615Z,31.00
2019-01-23T12:27:15.537Z,29.90
2019-01-23T12:28:15.481Z,31.30
2019-01-23T12:29:15.420Z,30.80
2019-01-23T12:30:15.359Z,31.60
2019-01-23T12:31:15.325Z,29.20
2019-01-23T12:32:15.244Z,28.20
2019-01-23T12:33:15.185Z,31.70
2019-01-23T12:34:15.129Z,31.40
2019-01-23T12:35:15.069Z,32.60
2019-01-23T12:36:15.033Z,31.30
2019-01-23T12:37:14.952Z,30.50
2019-01-23T12:38:14.891Z,31.40
2019-01-23T12:39:14.838Z,31.80
2019-01-23T12:40:14.779Z,33.50
2019-01-23T12:41:14.743Z,30.80
2019-01-23T12:42:14.658Z,30.00
2019-01-23T12:43:14.645Z,29.90
2019-01-23T12:44:14.543Z,31.10
2019-01-23T12:45:14.485Z,30.70
2019-01-23T12:46:14.448Z,29.60
2019-01-23T12:47:14.369Z,31.90
2019-01-23T12:48:14.311Z,30.10
2019-01-23T12:49:14.252Z,28.60
2019-01-23T12:50:14.190Z,31.60
2019-01-23T12:51:14.158Z,31.10
2019-01-23T12:52:14.075Z,30.10